Ana Sayfa
METAR-TAF:

METAR-TAF

Havaalanları :

Russell Municipal Airport

Russell, Kansas, Amerika Birleşik Devletleri

Enlem: 38-52-22N, Boylam: 098-48-47W, yükseklik: 567 m

Güncel hava durumu gözlemi

Rapor saat 04:53 UTC de 1 saat ve 3 dakika önce yapıldı.
Rüzgar kuzeydoğudan 9 kt
Sıcaklık 16°C
Nem 72%
Basınç 1012 hPa
Görüş mesafesi: 16.1 km
Açık gökyüzü

METAR: KRSL 270453Z AUTO 04009KT 10SM CLR 16/11 A2987 RMK AO2 SLP104 T01610111 $

Saat: 00:56 (05:56 UTC)

Tahmin

Rapor saat 05:20 UTC de 36 dakika önce yapıldı.
Ayın 27'si saat 06 UTC'den ayın 28'si saat 06 UTC'ye kadar geçerli Tahmin
Rüzgar kuzey/kuzeybatıdan 5 kt
Görüş mesafesi: 10 km
Açık gökyüzü

TAF: KRSL 270520Z 2706/2806 33005KT P6SM SKC

4.000'den fazla havaalanı için hava durumu gözlemleri ve tahminleri (METAR ve TAF raporları).

Kullanılabilir istasyonlar harita üzerinde sarı ve kırmızı noktalarla gösterilir.

İstasyonun adını görmek için fareyi noktanın üzerinde gezdirin.

Sonrasında hava gözlem ve tahminlerini görmek için tıklayın.

Haritayı değiştirmek için: yaklaştırmak için siyah artı işaretli yeşil düğmeye ve uzaklaştırmak için de eksi işaretli düğmeye hızla tıklayın; bitişik haritalar için yeşil okları kullanın.


METAR-TAF: